Orbital elements of COSMOS 2251 DEB
| Launched | 15 June 1993 |
| Flight ended | – |
| Launch site | Plesetsk Missile and Space Complex, Russia |
| Owner | Commonwealth of Independent States (former USSR) |
| NORAD ID | 34816 |
| Date fetched |
Epoch osculation |
Inc. [°] |
Ecc. | RA asc node [hr] |
Arg Peri. [°] |
Mean anom [°] |
Mean motion [rev/day] |
Abs. mag |
| Date fetched |
Epoch osculation |
Inc. [°] |
Ecc. | RA asc node [hr] |
Arg Peri. [°] |
Mean anom [°] |
Mean motion [rev/day] |
Abs. mag |
| 2026 May 03 17:57 | 2026 Apr 28 05:03:42 | 73.8862 | 0.03720 | 18.6933 | 320.4262 | 225.7568 | 13.58624 | – |
| 2026 May 02 17:57 | 2026 Apr 28 05:03:42 | 73.8862 | 0.03720 | 18.6933 | 320.4262 | 225.7568 | 13.58624 | – |
| 2026 May 01 17:56 | 2026 Apr 28 05:03:42 | 73.8862 | 0.03720 | 18.6933 | 320.4262 | 225.7568 | 13.58624 | – |
| 2026 Apr 30 17:56 | 2026 Apr 28 05:03:42 | 73.8862 | 0.03720 | 18.6933 | 320.4262 | 225.7568 | 13.58624 | – |
| 2026 Apr 29 17:57 | 2026 Apr 24 05:34:59 | 73.8861 | 0.03720 | 19.1264 | 327.6436 | 225.7568 | 13.58624 | – |
| 2026 Apr 28 17:56 | 2026 Apr 24 05:34:59 | 73.8861 | 0.03720 | 19.1264 | 327.6436 | 225.7568 | 13.58624 | – |
| 2026 Apr 27 17:58 | 2026 Apr 24 05:34:59 | 73.8861 | 0.03720 | 19.1264 | 327.6436 | 225.7568 | 13.58624 | – |
| 2026 Apr 26 17:58 | 2026 Apr 24 05:34:59 | 73.8861 | 0.03720 | 19.1264 | 327.6436 | 225.7568 | 13.58624 | – |
| 2026 Apr 25 17:58 | 2026 Apr 24 05:34:59 | 73.8861 | 0.03720 | 19.1264 | 327.6436 | 225.7568 | 13.58624 | – |
| 2026 Apr 24 17:59 | 2026 Apr 24 05:34:59 | 73.8861 | 0.03720 | 19.1264 | 327.6436 | 225.7568 | 13.58624 | – |
| 2026 Apr 23 17:57 | 2026 Apr 19 07:13:05 | 73.8859 | 0.03719 | 19.6632 | 336.5823 | 225.7568 | 13.58624 | – |
| 2026 Apr 22 17:57 | 2026 Apr 19 07:13:05 | 73.8859 | 0.03719 | 19.6632 | 336.5823 | 225.7568 | 13.58624 | – |
| 2026 Apr 21 17:57 | 2026 Apr 19 07:13:05 | 73.8859 | 0.03719 | 19.6632 | 336.5823 | 225.7568 | 13.58624 | – |
| 2026 Apr 20 17:57 | 2026 Apr 19 07:13:05 | 73.8859 | 0.03719 | 19.6632 | 336.5823 | 225.7568 | 13.58624 | – |
| 2026 Apr 19 17:58 | 2026 Apr 19 07:13:05 | 73.8859 | 0.03719 | 19.6632 | 336.5823 | 225.7568 | 13.58624 | – |
| 2026 Apr 18 17:56 | 2026 Apr 12 13:38:50 | 73.8867 | 0.03720 | 20.3960 | 348.7670 | 225.7568 | 13.58624 | – |
| 2026 Apr 16 17:57 | 2026 Apr 12 13:38:50 | 73.8867 | 0.03720 | 20.3960 | 348.7670 | 225.7568 | 13.58624 | – |
| 2026 Apr 14 17:57 | 2026 Apr 12 13:38:50 | 73.8867 | 0.03720 | 20.3960 | 348.7670 | 225.7568 | 13.58624 | – |
| 2026 Apr 13 17:57 | 2026 Apr 12 13:38:50 | 73.8867 | 0.03720 | 20.3960 | 348.7670 | 225.7568 | 13.58624 | – |
| 2026 Apr 12 17:57 | 2026 Apr 08 14:13:26 | 73.8871 | 0.03720 | 20.8287 | 355.9538 | 225.7568 | 13.58624 | – |
| 2026 Apr 11 17:57 | 2026 Apr 08 14:13:26 | 73.8871 | 0.03720 | 20.8287 | 355.9538 | 225.7568 | 13.58624 | – |
| 2026 Apr 10 17:58 | 2026 Apr 08 14:13:26 | 73.8871 | 0.03720 | 20.8287 | 355.9538 | 225.7568 | 13.58624 | – |
| 2026 Apr 09 18:01 | 2026 Apr 08 14:13:26 | 73.8871 | 0.03720 | 20.8287 | 355.9538 | 225.7568 | 13.58624 | – |
| 2026 Apr 08 17:57 | 2026 Apr 08 14:13:26 | 73.8871 | 0.03720 | 20.8287 | 355.9538 | 225.7568 | 13.58624 | – |
| 2026 Apr 07 17:57 | 2026 Mar 31 15:22:14 | 73.8888 | 0.03719 | 21.6941 | 10.3064 | 225.7568 | 13.58624 | – |
| 2026 Apr 06 17:57 | 2026 Mar 31 15:22:14 | 73.8888 | 0.03719 | 21.6941 | 10.3064 | 225.7568 | 13.58624 | – |